Time;durP1;ratioP1;P1;durP2;ratioP2;P2;SDS_P1;SDS_P2;PMS_P1;PMS_P2;Temp;Humidity;BMP_temperature;BMP_pressure;BME280_temperature;BME280_humidity;BME280_pressure;Samples;Min_cycle;Max_cycle;Signal;HPM_P1;HPM_P2
2021/03/06 00:02:11;;;;;;;5.00;3.92;;;;;;;;;;5030337;28;20207;-53
2021/03/06 00:04:37;;;;;;;5.30;3.63;;;;;;;;;;5033912;28;20191;-53
2021/03/06 00:07:03;;;;;;;4.97;3.70;;;;;;;;;;5015870;28;20573;-53
2021/03/06 00:09:29;;;;;;;5.68;3.38;;;;;;;;;;5025304;28;20270;-53
2021/03/06 00:11:55;;;;;;;5.35;3.47;;;;;;;;;;5034277;28;20279;-53
2021/03/06 00:14:21;;;;;;;4.32;3.50;;;;;;;;;;5027949;28;20484;-53
2021/03/06 00:16:47;;;;;;;4.47;3.35;;;;;;;;;;5019425;28;20270;-53
2021/03/06 00:19:13;;;;;;;4.32;3.38;;;;;;;;;;5014179;28;20635;-51
2021/03/06 00:21:39;;;;;;;4.40;3.50;;;;;;;;;;5014786;28;20267;-52
2021/03/06 00:24:05;;;;;;;5.90;3.88;;;;;;;;;;5013745;28;20191;-53
2021/03/06 00:26:31;;;;;;;4.25;3.60;;;;;;;;;;5019662;28;20233;-53
2021/03/06 00:28:57;;;;;;;4.78;3.67;;;;;;;;;;5031402;28;20192;-53
2021/03/06 00:31:23;;;;;;;3.40;2.88;;;;;;;;;;5028484;28;20191;-53
2021/03/06 00:33:50;;;;;;;5.32;3.70;;;;;;;;;;5018473;28;20189;-53
2021/03/06 00:36:15;;;;;;;4.50;3.20;;;;;;;;;;5013045;28;20177;-53
2021/03/06 00:38:41;;;;;;;4.32;3.20;;;;;;;;;;5014269;28;20230;-53
2021/03/06 00:41:07;;;;;;;5.05;3.58;;;;;;;;;;5013814;28;20188;-53
2021/03/06 00:43:33;;;;;;;3.45;3.15;;;;;;;;;;5014091;28;20475;-53
2021/03/06 00:45:59;;;;;;;3.72;2.90;;;;;;;;;;5028599;28;20188;-53
2021/03/06 00:48:25;;;;;;;3.92;3.25;;;;;;;;;;5027012;28;20246;-53
2021/03/06 00:50:51;;;;;;;4.68;3.40;;;;;;;;;;5028306;28;20195;-52
2021/03/06 00:53:17;;;;;;;4.35;3.00;;;;;;;;;;5031895;28;20195;-52
2021/03/06 00:55:43;;;;;;;4.18;3.22;;;;;;;;;;5032887;28;20199;-52
2021/03/06 00:58:09;;;;;;;4.65;3.03;;;;;;;;;;5019542;28;20238;-52
2021/03/06 01:00:35;;;;;;;3.83;3.20;;;;;;;;;;5017727;28;20227;-52
2021/03/06 01:03:02;;;;;;;4.07;2.67;;;;;;;;;;5015135;28;20188;-53
2021/03/06 01:05:28;;;;;;;5.18;3.42;;;;;;;;;;5036795;28;20233;-53
2021/03/06 01:07:55;;;;;;;5.05;3.53;;;;;;;;;;5037491;28;20574;-53
2021/03/06 01:10:24;;;;;;;4.13;3.28;;;;;;;;;;5018264;28;20184;-53
2021/03/06 01:12:50;;;;;;;3.53;2.88;;;;;;;;;;5024010;28;20283;-53
2021/03/06 01:15:16;;;;;;;3.70;3.03;;;;;;;;;;5025136;28;20290;-53
2021/03/06 01:17:42;;;;;;;4.50;3.30;;;;;;;;;;5032067;28;20183;-53
2021/03/06 01:20:08;;;;;;;3.90;3.10;;;;;;;;;;5028326;28;20207;-53
2021/03/06 01:22:34;;;;;;;3.97;2.75;;;;;;;;;;5017382;28;20452;-53
2021/03/06 01:25:01;;;;;;;2.83;2.17;;;;;;;;;;5030557;28;20192;-52
2021/03/06 01:27:27;;;;;;;3.63;2.72;;;;;;;;;;5036614;28;20180;-52
2021/03/06 01:29:53;;;;;;;3.33;2.85;;;;;;;;;;5031572;28;20188;-52
2021/03/06 01:32:19;;;;;;;3.42;2.83;;;;;;;;;;5029564;28;20280;-52
2021/03/06 01:34:45;;;;;;;3.45;2.55;;;;;;;;;;5028053;28;20216;-52
2021/03/06 01:37:11;;;;;;;3.92;2.90;;;;;;;;;;5017354;28;20187;-52
2021/03/06 01:39:37;;;;;;;3.67;2.85;;;;;;;;;;5017221;28;20562;-52
2021/03/06 01:42:03;;;;;;;4.03;2.92;;;;;;;;;;5016968;28;20263;-53
2021/03/06 01:44:29;;;;;;;3.58;2.90;;;;;;;;;;5017114;28;20251;-52
2021/03/06 01:46:55;;;;;;;3.63;2.70;;;;;;;;;;5016958;28;20189;-52
2021/03/06 01:49:21;;;;;;;3.97;2.90;;;;;;;;;;5034590;28;20190;-52
2021/03/06 01:51:47;;;;;;;5.07;2.80;;;;;;;;;;5025279;28;20263;-52
2021/03/06 01:54:14;;;;;;;3.15;2.53;;;;;;;;;;5032830;28;20207;-53
2021/03/06 01:56:40;;;;;;;3.22;2.35;;;;;;;;;;5021159;28;20185;-53
2021/03/06 01:59:06;;;;;;;3.55;2.50;;;;;;;;;;5017483;28;20180;-53
2021/03/06 02:01:32;;;;;;;3.35;2.60;;;;;;;;;;5017363;28;20200;-53
2021/03/06 02:03:58;;;;;;;4.05;2.90;;;;;;;;;;5016756;28;20183;-53
2021/03/06 02:06:24;;;;;;;2.70;2.50;;;;;;;;;;5015896;28;20181;-52
2021/03/06 02:08:51;;;;;;;3.40;2.90;;;;;;;;;;5013933;28;20201;-52
2021/03/06 02:11:24;;;;;;;3.45;2.55;;;;;;;;;;5029551;28;20184;-52
2021/03/06 02:14:05;;;;;;;3.15;2.75;;;;;;;;;;5032764;28;20191;-53
2021/03/06 02:16:38;;;;;;;2.88;2.63;;;;;;;;;;5020323;28;20618;-53
2021/03/06 02:19:16;;;;;;;3.60;2.60;;;;;;;;;;5027352;28;20183;-51
2021/03/06 02:21:42;;;;;;;4.10;2.80;;;;;;;;;;5016711;28;20263;-52
2021/03/06 02:24:16;;;;;;;2.65;2.40;;;;;;;;;;5020873;28;20325;-52
2021/03/06 02:26:50;;;;;;;2.65;2.45;;;;;;;;;;5033183;28;20274;-53
2021/03/06 02:29:22;;;;;;;3.22;2.72;;;;;;;;;;5032458;28;20459;-53
2021/03/06 02:31:48;;;;;;;3.35;2.50;;;;;;;;;;5020293;28;20184;-53
2021/03/06 02:34:18;;;;;;;2.30;2.03;;;;;;;;;;5031755;28;20739;-53
2021/03/06 02:36:49;;;;;;;2.85;2.55;;;;;;;;;;5016759;28;20221;-52
2021/03/06 02:39:15;;;;;;;2.40;2.10;;;;;;;;;;5035221;28;20172;-51
2021/03/06 02:41:42;;;;;;;2.70;2.30;;;;;;;;;;5031030;28;20199;-51
2021/03/06 02:44:10;;;;;;;2.72;2.33;;;;;;;;;;5023568;28;20188;-52
2021/03/06 02:46:36;;;;;;;2.28;2.08;;;;;;;;;;5025626;28;20492;-52
2021/03/06 02:49:03;;;;;;;3.42;2.35;;;;;;;;;;5016576;28;20184;-52
2021/03/06 02:51:36;;;;;;;2.50;2.13;;;;;;;;;;5035551;28;20195;-52
2021/03/06 02:54:03;;;;;;;2.75;2.20;;;;;;;;;;5033313;28;20183;-52
2021/03/06 02:56:29;;;;;;;2.20;2.00;;;;;;;;;;5033901;28;20199;-52
2021/03/06 02:59:03;;;;;;;2.88;2.38;;;;;;;;;;5022612;28;20185;-52
2021/03/06 03:01:52;;;;;;;2.30;2.10;;;;;;;;;;5026377;28;20200;-52
2021/03/06 03:04:37;;;;;;;2.33;2.10;;;;;;;;;;5005530;28;20223;-52
2021/03/06 03:07:08;;;;;;;2.28;2.08;;;;;;;;;;5029838;28;20188;-52
2021/03/06 03:09:35;;;;;;;2.58;1.92;;;;;;;;;;5014967;28;20234;-52
2021/03/06 03:12:18;;;;;;;3.85;2.38;;;;;;;;;;5028530;28;20257;-52
2021/03/06 03:14:53;;;;;;;2.10;1.90;;;;;;;;;;5018659;28;20254;-52
2021/03/06 03:17:46;;;;;;;3.85;2.53;;;;;;;;;;5023566;28;20176;-52
2021/03/06 03:20:15;;;;;;;2.45;2.22;;;;;;;;;;5012462;28;20590;-51
2021/03/06 03:22:47;;;;;;;3.05;2.28;;;;;;;;;;5015344;28;20494;-52
2021/03/06 03:25:13;;;;;;;2.35;2.15;;;;;;;;;;5019434;28;20184;-52
2021/03/06 03:27:40;;;;;;;2.17;1.80;;;;;;;;;;5026919;28;20247;-52
2021/03/06 03:30:08;;;;;;;2.95;2.20;;;;;;;;;;5026830;28;20185;-52
2021/03/06 03:32:34;;;;;;;2.95;1.92;;;;;;;;;;5016140;28;20196;-52
2021/03/06 03:35:00;;;;;;;2.05;1.90;;;;;;;;;;5015911;28;20209;-52
2021/03/06 03:37:26;;;;;;;2.15;1.95;;;;;;;;;;5021973;28;20222;-52
2021/03/06 03:39:53;;;;;;;2.53;2.10;;;;;;;;;;5028880;28;20179;-52
2021/03/06 03:42:20;;;;;;;1.85;1.73;;;;;;;;;;5034300;28;20193;-52
2021/03/06 03:44:47;;;;;;;2.17;1.95;;;;;;;;;;5029379;28;20261;-52
2021/03/06 03:47:14;;;;;;;2.13;1.75;;;;;;;;;;5022520;28;20227;-52
2021/03/06 03:49:40;;;;;;;1.83;1.73;;;;;;;;;;5014834;28;20176;-52
2021/03/06 03:52:06;;;;;;;2.28;1.95;;;;;;;;;;5014551;28;20188;-53
2021/03/06 03:54:33;;;;;;;2.08;1.98;;;;;;;;;;5030727;28;20217;-52
2021/03/06 03:56:59;;;;;;;2.47;2.08;;;;;;;;;;5019796;28;20175;-52
2021/03/06 03:59:26;;;;;;;2.33;1.67;;;;;;;;;;5032135;28;20238;-52
2021/03/06 04:01:52;;;;;;;2.17;1.98;;;;;;;;;;5023262;28;20196;-52
2021/03/06 04:04:24;;;;;;;2.20;1.88;;;;;;;;;;5033218;28;20474;-53
2021/03/06 04:06:50;;;;;;;2.08;1.55;;;;;;;;;;5031969;28;20464;-53
2021/03/06 04:09:16;;;;;;;3.22;1.80;;;;;;;;;;5028589;28;20203;-52
2021/03/06 04:11:42;;;;;;;2.10;1.90;;;;;;;;;;5018916;28;20210;-52
2021/03/06 04:14:08;;;;;;;1.65;1.55;;;;;;;;;;5031576;28;20194;-52
2021/03/06 04:16:34;;;;;;;2.05;1.70;;;;;;;;;;5022600;28;20566;-52
2021/03/06 04:19:00;;;;;;;2.17;1.98;;;;;;;;;;5034107;28;20196;-52
2021/03/06 04:21:26;;;;;;;1.65;1.52;;;;;;;;;;5021443;28;20181;-52
2021/03/06 04:23:52;;;;;;;1.98;1.77;;;;;;;;;;5017838;28;20184;-52
2021/03/06 04:26:18;;;;;;;2.70;1.90;;;;;;;;;;5016778;28;20219;-52
2021/03/06 04:28:44;;;;;;;1.60;1.50;;;;;;;;;;5029565;28;20217;-52
2021/03/06 04:31:10;;;;;;;1.80;1.70;;;;;;;;;;5026378;28;20483;-52
2021/03/06 04:33:36;;;;;;;1.48;1.35;;;;;;;;;;5014556;28;20185;-52
2021/03/06 04:36:02;;;;;;;1.73;1.63;;;;;;;;;;5029421;28;20199;-52
2021/03/06 04:38:28;;;;;;;1.60;1.50;;;;;;;;;;5033068;28;20789;-52
2021/03/06 04:40:54;;;;;;;1.73;1.63;;;;;;;;;;5030324;28;20180;-52
2021/03/06 04:43:20;;;;;;;1.60;1.50;;;;;;;;;;5031748;28;20191;-52
2021/03/06 04:45:46;;;;;;;1.90;1.70;;;;;;;;;;5021327;28;20181;-52
2021/03/06 04:48:12;;;;;;;1.60;1.50;;;;;;;;;;5024536;28;20192;-52
2021/03/06 04:50:38;;;;;;;1.60;1.50;;;;;;;;;;5014296;28;20235;-52
2021/03/06 04:53:04;;;;;;;1.63;1.52;;;;;;;;;;5022481;28;20976;-52
2021/03/06 04:55:30;;;;;;;1.50;1.40;;;;;;;;;;5029727;28;20283;-52
2021/03/06 04:57:56;;;;;;;1.60;1.50;;;;;;;;;;5028577;28;20271;-52
2021/03/06 05:00:22;;;;;;;2.00;1.45;;;;;;;;;;5022061;28;20176;-52
2021/03/06 05:02:48;;;;;;;1.70;1.55;;;;;;;;;;5030895;28;20175;-52
2021/03/06 05:05:14;;;;;;;1.60;1.50;;;;;;;;;;5013378;28;20507;-52
2021/03/06 05:07:40;;;;;;;1.80;1.55;;;;;;;;;;5014127;28;20456;-52
2021/03/06 05:10:07;;;;;;;1.65;1.55;;;;;;;;;;5021170;28;20184;-52
2021/03/06 05:12:33;;;;;;;1.50;1.40;;;;;;;;;;5033328;28;20195;-52
2021/03/06 05:14:59;;;;;;;1.40;1.30;;;;;;;;;;5019167;28;20199;-52
2021/03/06 05:17:25;;;;;;;1.45;1.35;;;;;;;;;;5026458;28;20203;-52
2021/03/06 05:19:51;;;;;;;1.60;1.50;;;;;;;;;;5032739;28;20595;-52
2021/03/06 05:22:17;;;;;;;2.08;1.83;;;;;;;;;;5033008;28;20171;-52
2021/03/06 05:24:44;;;;;;;1.48;1.38;;;;;;;;;;5032990;28;20176;-52
2021/03/06 05:27:10;;;;;;;1.67;1.58;;;;;;;;;;5026498;28;20180;-52
2021/03/06 05:29:36;;;;;;;2.22;1.50;;;;;;;;;;5024213;28;20206;-52
2021/03/06 05:32:04;;;;;;;2.15;1.48;;;;;;;;;;5022593;28;20193;-52
2021/03/06 05:34:30;;;;;;;1.73;1.40;;;;;;;;;;5013071;28;20212;-52
2021/03/06 05:36:56;;;;;;;1.73;1.38;;;;;;;;;;5013664;28;20444;-52
2021/03/06 05:39:23;;;;;;;1.40;1.30;;;;;;;;;;5013261;28;20187;-52
2021/03/06 05:41:49;;;;;;;1.55;1.45;;;;;;;;;;5025910;28;20187;-52
2021/03/06 05:44:15;;;;;;;1.50;1.40;;;;;;;;;;5028205;28;20270;-52
2021/03/06 05:46:44;;;;;;;1.52;1.30;;;;;;;;;;5028952;28;20199;-53
2021/03/06 05:49:12;;;;;;;2.35;1.50;;;;;;;;;;5032591;28;20184;-52
2021/03/06 05:51:38;;;;;;;1.95;1.60;;;;;;;;;;5036890;28;20176;-53
2021/03/06 05:54:06;;;;;;;1.80;1.70;;;;;;;;;;5017991;28;20249;-53
2021/03/06 05:56:34;;;;;;;1.55;1.40;;;;;;;;;;5019858;28;20233;-53
2021/03/06 05:59:02;;;;;;;2.40;1.70;;;;;;;;;;5019531;28;20181;-53
2021/03/06 06:01:29;;;;;;;1.77;1.50;;;;;;;;;;5036122;28;20291;-53
2021/03/06 06:03:57;;;;;;;1.50;1.40;;;;;;;;;;5036649;28;20277;-53
2021/03/06 06:06:23;;;;;;;1.85;1.63;;;;;;;;;;5035408;28;20551;-53
2021/03/06 06:08:49;;;;;;;1.80;1.35;;;;;;;;;;5016401;28;20176;-53
2021/03/06 06:11:15;;;;;;;1.90;1.70;;;;;;;;;;5024262;28;20195;-53
2021/03/06 06:13:41;;;;;;;1.50;1.40;;;;;;;;;;5027615;28;20282;-53
2021/03/06 06:16:07;;;;;;;1.58;1.40;;;;;;;;;;5021914;28;20216;-53
2021/03/06 06:18:33;;;;;;;1.65;1.40;;;;;;;;;;5018582;28;20196;-53
2021/03/06 06:20:59;;;;;;;1.55;1.45;;;;;;;;;;5016263;28;20184;-53
2021/03/06 06:23:25;;;;;;;2.33;1.35;;;;;;;;;;5016070;28;20201;-53
2021/03/06 06:25:51;;;;;;;1.58;1.48;;;;;;;;;;5016168;28;20266;-53
2021/03/06 06:28:17;;;;;;;1.85;1.75;;;;;;;;;;5017977;28;20184;-53
2021/03/06 06:30:43;;;;;;;1.50;1.40;;;;;;;;;;5031528;28;20188;-53
2021/03/06 06:33:09;;;;;;;1.67;1.48;;;;;;;;;;5016498;28;20199;-52
2021/03/06 06:35:41;;;;;;;1.90;1.55;;;;;;;;;;5021369;28;20625;-52
2021/03/06 06:38:07;;;;;;;1.55;1.40;;;;;;;;;;5028748;28;20826;-52
2021/03/06 06:40:35;;;;;;;1.40;1.30;;;;;;;;;;5031695;28;20583;-52
2021/03/06 06:43:01;;;;;;;1.77;1.48;;;;;;;;;;5027027;28;20226;-52
2021/03/06 06:45:37;;;;;;;1.70;1.60;;;;;;;;;;5025145;28;20188;-52
2021/03/06 06:48:10;;;;;;;2.15;1.83;;;;;;;;;;5032646;28;20198;-52
2021/03/06 06:50:36;;;;;;;3.05;1.40;;;;;;;;;;5029177;28;20538;-52
2021/03/06 06:53:02;;;;;;;1.38;1.27;;;;;;;;;;5016083;28;20192;-52
2021/03/06 06:55:38;;;;;;;1.95;1.60;;;;;;;;;;5017520;28;20967;-52
2021/03/06 06:58:04;;;;;;;2.75;1.83;;;;;;;;;;5029445;28;20262;-53
2021/03/06 07:00:31;;;;;;;1.95;1.73;;;;;;;;;;5024777;28;20181;-53
2021/03/06 07:02:58;;;;;;;1.73;1.55;;;;;;;;;;5032957;28;20416;-53
2021/03/06 07:05:33;;;;;;;1.90;1.70;;;;;;;;;;5031604;28;20194;-53
2021/03/06 07:08:00;;;;;;;1.95;1.80;;;;;;;;;;5028666;28;20190;-52
2021/03/06 07:10:33;;;;;;;2.08;1.65;;;;;;;;;;5016134;28;20188;-53
2021/03/06 07:13:00;;;;;;;1.95;1.75;;;;;;;;;;5021768;28;20206;-53
2021/03/06 07:15:27;;;;;;;1.63;1.52;;;;;;;;;;5025995;28;20207;-52
2021/03/06 07:17:54;;;;;;;1.70;1.60;;;;;;;;;;5020106;28;20195;-52
2021/03/06 07:20:20;;;;;;;1.55;1.45;;;;;;;;;;5021993;28;20322;-52
2021/03/06 07:22:46;;;;;;;1.80;1.70;;;;;;;;;;5027817;28;20286;-52
2021/03/06 07:25:13;;;;;;;1.67;1.52;;;;;;;;;;5014469;28;20188;-53
2021/03/06 07:27:38;;;;;;;1.75;1.65;;;;;;;;;;5024461;28;20214;-53
2021/03/06 07:30:08;;;;;;;1.58;1.48;;;;;;;;;;5026362;28;20187;-53
2021/03/06 07:32:37;;;;;;;3.25;2.10;;;;;;;;;;5020734;28;20189;-52
2021/03/06 07:35:04;;;;;;;1.73;1.55;;;;;;;;;;5027655;28;20598;-52
2021/03/06 07:37:32;;;;;;;1.65;1.55;;;;;;;;;;5016640;28;20855;-53
2021/03/06 07:39:59;;;;;;;1.65;1.55;;;;;;;;;;5033211;28;20496;-53
2021/03/06 07:42:46;;;;;;;1.77;1.67;;;;;;;;;;5023221;28;20260;-53
2021/03/06 07:45:14;;;;;;;1.98;1.67;;;;;;;;;;5021137;28;20175;-53
2021/03/06 07:47:42;;;;;;;3.00;1.77;;;;;;;;;;5022347;28;20183;-52
2021/03/06 07:50:14;;;;;;;1.90;1.58;;;;;;;;;;5034194;28;20187;-52
2021/03/06 07:52:40;;;;;;;2.00;1.80;;;;;;;;;;5027665;28;20191;-52
2021/03/06 07:55:10;;;;;;;2.10;1.88;;;;;;;;;;5023311;28;20230;-52
2021/03/06 07:57:54;;;;;;;1.58;1.48;;;;;;;;;;5027835;28;20191;-52
2021/03/06 08:00:37;;;;;;;1.85;1.67;;;;;;;;;;5022195;28;20618;-52
2021/03/06 08:03:26;;;;;;;1.98;1.80;;;;;;;;;;5030867;28;20245;-52
2021/03/06 08:05:54;;;;;;;1.70;1.60;;;;;;;;;;5023298;28;20188;-52
2021/03/06 08:08:32;;;;;;;2.08;1.80;;;;;;;;;;5014185;28;20194;-52
2021/03/06 08:11:17;;;;;;;5.32;1.35;;;;;;;;;;5018407;28;20270;-52
2021/03/06 08:13:46;;;;;;;5.93;2.00;;;;;;;;;;5013746;28;20235;-52
2021/03/06 08:16:24;;;;;;;3.58;1.48;;;;;;;;;;5025344;28;20195;-52
2021/03/06 08:18:51;;;;;;;4.38;3.00;;;;;;;;;;5033723;28;20576;-52
2021/03/06 08:21:43;;;;;;;5.85;3.35;;;;;;;;;;5034310;28;20414;-52
2021/03/06 08:24:26;;;;;;;12.85;5.93;;;;;;;;;;5030847;28;20196;-52
2021/03/06 08:27:04;;;;;;;14.15;6.10;;;;;;;;;;5021060;28;20241;-52
2021/03/06 08:29:31;;;;;;;12.80;6.50;;;;;;;;;;5018783;28;20183;-52
2021/03/06 08:31:57;;;;;;;12.52;7.68;;;;;;;;;;5032248;28;20218;-52
2021/03/06 08:34:31;;;;;;;19.27;8.80;;;;;;;;;;5014893;28;20491;-52
2021/03/06 08:37:22;;;;;;;21.80;9.25;;;;;;;;;;5027730;28;20223;-52
2021/03/06 08:40:06;;;;;;;19.52;10.70;;;;;;;;;;5023415;28;20271;-52
2021/03/06 08:42:38;;;;;;;16.88;10.35;;;;;;;;;;5029275;28;20203;-52
2021/03/06 08:45:06;;;;;;;22.45;10.90;;;;;;;;;;5022234;28;20192;-53
2021/03/06 08:47:34;;;;;;;19.50;10.13;;;;;;;;;;5024392;28;20197;-52
2021/03/06 08:50:01;;;;;;;25.02;10.98;;;;;;;;;;5031232;28;20183;-52
2021/03/06 08:52:29;;;;;;;19.08;10.27;;;;;;;;;;5026755;28;20202;-52
2021/03/06 08:54:55;;;;;;;19.90;10.68;;;;;;;;;;5018087;28;20219;-52
2021/03/06 08:57:24;;;;;;;18.17;9.85;;;;;;;;;;5017390;28;20194;-52
2021/03/06 08:59:50;;;;;;;17.25;10.13;;;;;;;;;;5018225;28;20180;-52
2021/03/06 09:02:17;;;;;;;17.33;10.20;;;;;;;;;;5017482;28;20253;-52
2021/03/06 09:04:43;;;;;;;20.58;10.45;;;;;;;;;;5032872;28;20175;-52
2021/03/06 09:07:10;;;;;;;15.80;9.40;;;;;;;;;;5016628;28;20188;-52
2021/03/06 09:09:36;;;;;;;22.30;10.07;;;;;;;;;;5014635;28;20188;-52
2021/03/06 09:12:03;;;;;;;147.63;35.22;;;;;;;;;;5030393;28;20195;-52
2021/03/06 09:14:29;;;;;;;110.13;30.52;;;;;;;;;;5022094;28;20200;-52
2021/03/06 09:16:55;;;;;;;117.22;26.77;;;;;;;;;;5026216;28;20200;-52
2021/03/06 09:19:29;;;;;;;209.43;45.38;;;;;;;;;;5012686;28;20327;-52
2021/03/06 09:22:02;;;;;;;244.88;55.88;;;;;;;;;;5018787;28;20559;-52
2021/03/06 09:24:48;;;;;;;228.40;54.25;;;;;;;;;;5029361;28;20246;-52
2021/03/06 09:27:14;;;;;;;211.90;50.13;;;;;;;;;;5030595;28;20187;-52
2021/03/06 09:29:41;;;;;;;177.35;45.05;;;;;;;;;;5033227;28;20188;-52
2021/03/06 09:32:07;;;;;;;159.73;40.05;;;;;;;;;;5027637;28;20195;-52
2021/03/06 09:34:33;;;;;;;146.23;38.25;;;;;;;;;;5034960;28;20531;-52
2021/03/06 09:36:59;;;;;;;134.43;36.25;;;;;;;;;;5019810;28;20191;-52
2021/03/06 09:39:26;;;;;;;120.63;33.30;;;;;;;;;;5018357;28;20195;-52
2021/03/06 09:41:52;;;;;;;126.15;32.53;;;;;;;;;;5018586;28;20191;-52
2021/03/06 09:44:19;;;;;;;107.70;30.58;;;;;;;;;;5019145;28;20215;-52
2021/03/06 09:46:45;;;;;;;101.85;28.52;;;;;;;;;;5025377;28;20191;-52
2021/03/06 09:49:14;;;;;;;97.53;28.30;;;;;;;;;;5036543;28;20581;-52
2021/03/06 09:51:41;;;;;;;97.50;26.95;;;;;;;;;;5022387;28;20247;-52
2021/03/06 09:54:07;;;;;;;87.40;25.58;;;;;;;;;;5017152;28;20183;-52
2021/03/06 09:56:34;;;;;;;84.30;24.63;;;;;;;;;;5025802;28;20212;-52
2021/03/06 09:59:01;;;;;;;68.55;23.13;;;;;;;;;;5035258;28;20176;-52
2021/03/06 10:01:28;;;;;;;75.20;23.35;;;;;;;;;;5027616;28;20191;-52
2021/03/06 10:03:54;;;;;;;81.20;23.67;;;;;;;;;;5036652;28;20651;-52
2021/03/06 10:06:30;;;;;;;67.30;22.02;;;;;;;;;;5034997;28;20484;-52
2021/03/06 10:08:57;;;;;;;65.40;21.85;;;;;;;;;;5036501;28;20179;-51
2021/03/06 10:11:31;;;;;;;61.95;20.35;;;;;;;;;;5017958;28;20999;-52
2021/03/06 10:13:57;;;;;;;62.08;19.48;;;;;;;;;;5029769;28;20283;-52
2021/03/06 10:16:23;;;;;;;57.42;20.27;;;;;;;;;;5019371;28;20285;-52
2021/03/06 10:18:49;;;;;;;63.75;20.05;;;;;;;;;;5016118;28;20187;-52
2021/03/06 10:21:17;;;;;;;50.58;19.33;;;;;;;;;;5022083;28;20207;-52
2021/03/06 10:23:43;;;;;;;55.25;19.42;;;;;;;;;;5024033;28;20203;-52
2021/03/06 10:26:16;;;;;;;48.22;17.48;;;;;;;;;;5034458;28;20183;-52
2021/03/06 10:28:42;;;;;;;47.35;17.08;;;;;;;;;;5021191;28;20184;-53
2021/03/06 10:31:24;;;;;;;48.03;17.25;;;;;;;;;;5026510;28;20200;-48
2021/03/06 10:33:50;;;;;;;36.25;10.95;;;;;;;;;;5026754;28;20184;-47
2021/03/06 10:36:17;;;;;;;31.85;10.50;;;;;;;;;;5023197;28;20458;-48
2021/03/06 10:38:43;;;;;;;29.08;10.60;;;;;;;;;;5025615;28;20183;-48
2021/03/06 10:41:23;;;;;;;30.23;11.35;;;;;;;;;;5023342;28;20585;-48
2021/03/06 10:43:53;;;;;;;29.48;10.23;;;;;;;;;;5030736;28;20187;-48
2021/03/06 10:46:24;;;;;;;30.60;9.88;;;;;;;;;;5034257;28;20194;-47
2021/03/06 10:48:53;;;;;;;24.40;9.88;;;;;;;;;;5026211;28;20461;-47
2021/03/06 10:51:19;;;;;;;20.13;8.27;;;;;;;;;;5024714;28;20238;-48
2021/03/06 10:54:05;;;;;;;20.55;9.00;;;;;;;;;;5026995;28;20189;-48
2021/03/06 10:56:32;;;;;;;23.17;8.75;;;;;;;;;;5032139;28;20191;-47
2021/03/06 10:58:58;;;;;;;20.10;7.65;;;;;;;;;;5015705;28;20177;-48
2021/03/06 11:01:24;;;;;;;23.63;8.07;;;;;;;;;;5021681;28;20716;-48
2021/03/06 11:03:51;;;;;;;19.02;7.80;;;;;;;;;;5035456;28;20179;-48
2021/03/06 11:06:20;;;;;;;17.50;8.40;;;;;;;;;;5032813;28;20180;-48
2021/03/06 11:09:12;;;;;;;20.17;8.38;;;;;;;;;;5035296;28;20537;-48
2021/03/06 11:11:38;;;;;;;15.23;7.30;;;;;;;;;;5031298;28;20207;-47
2021/03/06 11:14:04;;;;;;;13.10;6.30;;;;;;;;;;5034529;28;20217;-47
2021/03/06 11:16:37;;;;;;;14.77;6.78;;;;;;;;;;5033923;28;20754;-47
2021/03/06 11:19:04;;;;;;;17.52;6.72;;;;;;;;;;5020317;28;20180;-47
2021/03/06 11:21:30;;;;;;;15.32;6.30;;;;;;;;;;5034878;28;20180;-47
2021/03/06 11:23:56;;;;;;;15.23;6.25;;;;;;;;;;5034325;28;20496;-47
2021/03/06 11:26:22;;;;;;;19.05;6.35;;;;;;;;;;5034410;28;20602;-47
2021/03/06 11:28:47;;;;;;;9.93;5.03;;;;;;;;;;5020293;28;20226;-48
2021/03/06 11:31:13;;;;;;;8.57;5.35;;;;;;;;;;5014843;28;20259;-47
2021/03/06 11:33:39;;;;;;;11.70;4.55;;;;;;;;;;5032388;28;20191;-47
2021/03/06 11:36:05;;;;;;;11.45;4.60;;;;;;;;;;5015351;28;20212;-47
2021/03/06 11:38:34;;;;;;;9.20;3.97;;;;;;;;;;5015163;28;20176;-47
2021/03/06 11:41:00;;;;;;;11.63;4.93;;;;;;;;;;5015050;28;20185;-47
2021/03/06 11:43:26;;;;;;;8.23;4.65;;;;;;;;;;5015071;28;20195;-47
2021/03/06 11:45:52;;;;;;;13.93;6.90;;;;;;;;;;5026438;28;20266;-47
2021/03/06 11:48:18;;;;;;;12.82;5.78;;;;;;;;;;5033838;28;20183;-47
2021/03/06 11:50:45;;;;;;;43.13;17.65;;;;;;;;;;5028766;28;20180;-48
2021/03/06 11:53:12;;;;;;;42.45;16.23;;;;;;;;;;5023711;28;20195;-48
2021/03/06 11:55:38;;;;;;;34.72;10.85;;;;;;;;;;5023141;28;20796;-48
2021/03/06 11:58:04;;;;;;;25.13;9.18;;;;;;;;;;5034198;28;20187;-47
2021/03/06 12:00:31;;;;;;;26.40;8.48;;;;;;;;;;5032434;28;20176;-47
2021/03/06 12:02:57;;;;;;;23.58;8.75;;;;;;;;;;5017523;28;20618;-47
2021/03/06 12:05:23;;;;;;;21.95;8.20;;;;;;;;;;5021251;28;20684;-47
2021/03/06 12:07:51;;;;;;;23.63;8.07;;;;;;;;;;5025303;28;20192;-47
2021/03/06 12:10:18;;;;;;;23.05;8.85;;;;;;;;;;5017608;28;20193;-47
2021/03/06 12:12:45;;;;;;;18.52;7.15;;;;;;;;;;5019246;28;20203;-47
2021/03/06 12:15:12;;;;;;;21.52;7.53;;;;;;;;;;5018999;28;20199;-47
2021/03/06 12:17:38;;;;;;;22.50;7.03;;;;;;;;;;5020577;28;20286;-47
2021/03/06 12:20:05;;;;;;;17.33;6.70;;;;;;;;;;5021750;28;20271;-47
2021/03/06 12:22:31;;;;;;;18.05;6.35;;;;;;;;;;5021907;28;20556;-48
2021/03/06 12:24:57;;;;;;;17.52;6.40;;;;;;;;;;5024337;28;20188;-48
2021/03/06 12:27:23;;;;;;;18.02;7.03;;;;;;;;;;5025093;28;20692;-48
2021/03/06 12:29:49;;;;;;;15.60;6.38;;;;;;;;;;5025442;28;20195;-48
2021/03/06 12:32:15;;;;;;;18.13;5.85;;;;;;;;;;5030388;28;20184;-49
2021/03/06 12:34:41;;;;;;;15.82;5.90;;;;;;;;;;5029203;28;20575;-52
2021/03/06 12:37:07;;;;;;;13.02;5.32;;;;;;;;;;5019572;28;20188;-50
2021/03/06 12:39:33;;;;;;;14.23;4.65;;;;;;;;;;5018468;28;20191;-50
2021/03/06 12:41:59;;;;;;;10.43;4.15;;;;;;;;;;5019874;28;20180;-50
2021/03/06 12:44:25;;;;;;;7.03;3.08;;;;;;;;;;5019693;28;20184;-50
2021/03/06 12:46:52;;;;;;;10.05;3.72;;;;;;;;;;5031214;28;20625;-50
2021/03/06 12:49:18;;;;;;;5.68;2.53;;;;;;;;;;5021367;28;20188;-50
2021/03/06 12:51:44;;;;;;;4.63;2.40;;;;;;;;;;5014914;28;20173;-49
2021/03/06 12:54:11;;;;;;;7.95;2.40;;;;;;;;;;5023818;28;20555;-49
2021/03/06 12:56:37;;;;;;;11.55;2.60;;;;;;;;;;5022594;28;20188;-49
2021/03/06 12:59:03;;;;;;;7.07;2.38;;;;;;;;;;5029370;28;20195;-56
2021/03/06 13:01:29;;;;;;;2.85;1.88;;;;;;;;;;5022401;28;20204;-50
2021/03/06 13:03:55;;;;;;;3.00;1.60;;;;;;;;;;5023774;28;20279;-51
2021/03/06 13:06:21;;;;;;;3.28;1.73;;;;;;;;;;5030978;28;20540;-59
2021/03/06 13:08:47;;;;;;;3.30;1.48;;;;;;;;;;5018000;28;20176;-51
2021/03/06 13:11:13;;;;;;;4.07;1.60;;;;;;;;;;5018961;28;20188;-45
2021/03/06 13:13:39;;;;;;;4.68;1.70;;;;;;;;;;5023028;28;20211;-45
2021/03/06 13:16:06;;;;;;;2.70;1.45;;;;;;;;;;5034451;28;20479;-45
2021/03/06 13:18:32;;;;;;;3.17;1.48;;;;;;;;;;5029254;28;20578;-45
2021/03/06 13:20:59;;;;;;;2.67;1.55;;;;;;;;;;5028546;28;20176;-46
2021/03/06 13:23:25;;;;;;;3.22;1.52;;;;;;;;;;5034939;28;20180;-45
2021/03/06 13:25:51;;;;;;;3.58;1.42;;;;;;;;;;5028460;28;20168;-45
2021/03/06 13:28:17;;;;;;;4.15;1.58;;;;;;;;;;5027891;28;20423;-45
2021/03/06 13:30:43;;;;;;;3.25;1.45;;;;;;;;;;5029085;28;20194;-45
2021/03/06 13:33:09;;;;;;;3.88;1.42;;;;;;;;;;5017046;28;20276;-45
2021/03/06 13:35:35;;;;;;;2.33;1.30;;;;;;;;;;5016693;28;20603;-45
2021/03/06 13:38:02;;;;;;;3.00;1.15;;;;;;;;;;5017424;28;20169;-46
2021/03/06 13:40:28;;;;;;;3.58;1.30;;;;;;;;;;5017595;28;20263;-46
2021/03/06 13:42:54;;;;;;;2.60;1.20;;;;;;;;;;5021740;28;20582;-46
2021/03/06 13:45:20;;;;;;;2.40;1.40;;;;;;;;;;5023352;28;20208;-46
2021/03/06 13:47:46;;;;;;;1.88;1.08;;;;;;;;;;5019792;28;20797;-45
2021/03/06 13:50:13;;;;;;;1.23;1.10;;;;;;;;;;5028067;28;20215;-45
2021/03/06 13:52:40;;;;;;;2.30;1.20;;;;;;;;;;5030587;28;20192;-45
2021/03/06 13:55:08;;;;;;;5.88;1.25;;;;;;;;;;5022912;28;20211;-45
2021/03/06 13:57:35;;;;;;;2.92;1.63;;;;;;;;;;5026716;28;20219;-45
2021/03/06 14:00:02;;;;;;;1.83;1.25;;;;;;;;;;5026760;28;20211;-45
2021/03/06 14:02:28;;;;;;;2.05;1.27;;;;;;;;;;5015998;28;20200;-46
2021/03/06 14:04:54;;;;;;;3.42;1.55;;;;;;;;;;5032581;28;20219;-45
2021/03/06 14:07:19;;;;;;;2.30;1.70;;;;;;;;;;5036137;28;20184;-45
2021/03/06 14:09:46;;;;;;;3.22;1.20;;;;;;;;;;5023680;28;20619;-45
2021/03/06 14:12:11;;;;;;;2.03;1.13;;;;;;;;;;5027750;28;20222;-45
2021/03/06 14:14:37;;;;;;;2.78;1.30;;;;;;;;;;5026840;28;20208;-45
2021/03/06 14:17:03;;;;;;;2.30;0.98;;;;;;;;;;5022106;28;20251;-45
2021/03/06 14:19:30;;;;;;;2.53;1.10;;;;;;;;;;5035875;28;20179;-45
2021/03/06 14:21:56;;;;;;;2.40;1.27;;;;;;;;;;5036260;28;20195;-45
2021/03/06 14:24:22;;;;;;;2.65;1.40;;;;;;;;;;5033092;28;20598;-45
2021/03/06 14:26:48;;;;;;;2.97;1.58;;;;;;;;;;5016774;28;20188;-45
2021/03/06 14:29:14;;;;;;;2.15;1.20;;;;;;;;;;5028124;28;20596;-45
2021/03/06 14:31:40;;;;;;;1.92;1.30;;;;;;;;;;5035233;28;20195;-45
2021/03/06 14:34:07;;;;;;;2.50;1.08;;;;;;;;;;5034887;28;20262;-45
2021/03/06 14:36:37;;;;;;;1.30;1.20;;;;;;;;;;5035952;28;20215;-45
2021/03/06 14:39:13;;;;;;;2.00;1.05;;;;;;;;;;5015683;28;20185;-45
2021/03/06 14:41:40;;;;;;;2.83;1.30;;;;;;;;;;5034549;28;20184;-45